Terminal Aerodrome Forecast
Issued by NWS

Home | Current Version | Previous Version | Graphics & Text | Print | Product List | Glossary On
Versions: 1 2 3 4 5 6 7 8 9 10 11 12 13 14 15
179
FTUS43 KMPX 280745 AAA
TAFRWF
TAF AMD
KRWF 280745Z 2808/2906 34007KT P6SM BKN015
     FM281700 01008KT P6SM BKN025
     FM282100 03008KT P6SM BKN040=

USA.gov is the U.S. government's official web portal to all federal, state and local government web resources and services.